Nyiregyhaza, Hungary
Current Conditions -  °F | °C
As of 5:45 PM on Friday 31 Oct 2014 (Local Time) from LHDC Reporting Station
Broken Clouds Broken Clouds  
Wind Chill: 46°   Ceiling: 3600
Heat Index: 48°   Visibility: 6mi
Dew Point: 39°   Wind: 6mph
Humidity: 71%   Direction: 40°NE
Pressure: 30.33"   Gusts: NA
Location:  47.96°N, 21.72°E
Report Text: LHDC 311545Z 04005KT 9999 BKN036 09/04 Q1027
Loading
Personal Weather Stations






























Interactive Weather Map
Tropical Storm Tracking
New forecast layout! Learn more

10-Day Weather Forecast

Advertisements
Track Severe Weather on mobile